sensor_id;sensor_type;location;lat;lon;timestamp;temperature;humidity
9373;DHT22;10838;52.350;9.790;2022-07-10T00:00:25;16.50;90.20
9373;DHT22;10838;52.350;9.790;2022-07-10T00:02:52;16.50;90.20
9373;DHT22;10838;52.350;9.790;2022-07-10T00:05:19;16.50;90.20
9373;DHT22;10838;52.350;9.790;2022-07-10T00:07:45;16.50;90.20
9373;DHT22;10838;52.350;9.790;2022-07-10T00:10:14;16.40;90.20
9373;DHT22;10838;52.350;9.790;2022-07-10T00:12:41;16.40;90.20
9373;DHT22;10838;52.350;9.790;2022-07-10T00:15:09;16.40;90.20
9373;DHT22;10838;52.350;9.790;2022-07-10T00:17:35;16.40;90.20
9373;DHT22;10838;52.350;9.790;2022-07-10T00:20:05;16.40;90.20
9373;DHT22;10838;52.350;9.790;2022-07-10T00:22:33;16.40;90.30
9373;DHT22;10838;52.350;9.790;2022-07-10T00:25:00;16.40;90.30
9373;DHT22;10838;52.350;9.790;2022-07-10T00:27:27;16.40;90.30
9373;DHT22;10838;52.350;9.790;2022-07-10T00:29:54;16.30;90.30
9373;DHT22;10838;52.350;9.790;2022-07-10T00:32:21;16.30;90.30
9373;DHT22;10838;52.350;9.790;2022-07-10T00:34:48;16.30;90.30
9373;DHT22;10838;52.350;9.790;2022-07-10T00:37:14;16.30;90.30
9373;DHT22;10838;52.350;9.790;2022-07-10T00:39:41;16.30;90.30
9373;DHT22;10838;52.350;9.790;2022-07-10T00:42:09;16.30;90.30
9373;DHT22;10838;52.350;9.790;2022-07-10T00:44:37;16.30;90.30
9373;DHT22;10838;52.350;9.790;2022-07-10T00:47:04;16.20;90.40
9373;DHT22;10838;52.350;9.790;2022-07-10T00:49:31;16.20;90.40
9373;DHT22;10838;52.350;9.790;2022-07-10T00:52:00;16.20;90.40
9373;DHT22;10838;52.350;9.790;2022-07-10T00:54:28;16.20;90.40
9373;DHT22;10838;52.350;9.790;2022-07-10T00:56:55;16.20;90.40
9373;DHT22;10838;52.350;9.790;2022-07-10T00:59:23;16.20;90.40
9373;DHT22;10838;52.350;9.790;2022-07-10T01:01:51;16.20;90.40
9373;DHT22;10838;52.350;9.790;2022-07-10T01:04:18;16.20;90.40
9373;DHT22;10838;52.350;9.790;2022-07-10T01:06:45;16.20;90.50
9373;DHT22;10838;52.350;9.790;2022-07-10T01:09:12;16.10;90.40
9373;DHT22;10838;52.350;9.790;2022-07-10T01:11:39;16.10;90.40
9373;DHT22;10838;52.350;9.790;2022-07-10T01:14:05;16.10;90.40
9373;DHT22;10838;52.350;9.790;2022-07-10T01:16:32;16.10;90.40
9373;DHT22;10838;52.350;9.790;2022-07-10T01:19:00;16.00;90.40
9373;DHT22;10838;52.350;9.790;2022-07-10T01:21:29;16.00;90.40
9373;DHT22;10838;52.350;9.790;2022-07-10T01:23:56;16.00;90.40
9373;DHT22;10838;52.350;9.790;2022-07-10T01:26:24;16.00;90.40
9373;DHT22;10838;52.350;9.790;2022-07-10T01:28:52;16.00;90.40
9373;DHT22;10838;52.350;9.790;2022-07-10T01:31:19;16.00;90.40
9373;DHT22;10838;52.350;9.790;2022-07-10T01:33:46;15.90;90.40
9373;DHT22;10838;52.350;9.790;2022-07-10T01:36:13;15.90;90.50
9373;DHT22;10838;52.350;9.790;2022-07-10T01:38:41;15.90;90.50
9373;DHT22;10838;52.350;9.790;2022-07-10T01:41:08;15.90;90.50
9373;DHT22;10838;52.350;9.790;2022-07-10T01:43:35;15.90;90.50
9373;DHT22;10838;52.350;9.790;2022-07-10T01:46:02;15.80;90.50
9373;DHT22;10838;52.350;9.790;2022-07-10T01:48:29;15.80;90.50
9373;DHT22;10838;52.350;9.790;2022-07-10T01:50:56;15.80;90.50
9373;DHT22;10838;52.350;9.790;2022-07-10T01:53:22;15.80;90.50
9373;DHT22;10838;52.350;9.790;2022-07-10T01:55:50;15.80;90.50
9373;DHT22;10838;52.350;9.790;2022-07-10T01:58:17;15.80;90.50
9373;DHT22;10838;52.350;9.790;2022-07-10T02:00:44;15.70;90.50
9373;DHT22;10838;52.350;9.790;2022-07-10T02:03:11;15.70;90.60
9373;DHT22;10838;52.350;9.790;2022-07-10T02:05:55;15.70;90.60
9373;DHT22;10838;52.350;9.790;2022-07-10T02:08:22;15.70;90.60
9373;DHT22;10838;52.350;9.790;2022-07-10T02:10:48;15.70;90.60
9373;DHT22;10838;52.350;9.790;2022-07-10T02:13:16;15.70;90.70
9373;DHT22;10838;52.350;9.790;2022-07-10T02:15:45;15.60;90.70
9373;DHT22;10838;52.350;9.790;2022-07-10T02:18:12;15.60;90.70
9373;DHT22;10838;52.350;9.790;2022-07-10T02:20:38;15.60;90.70
9373;DHT22;10838;52.350;9.790;2022-07-10T02:23:05;15.60;90.70
9373;DHT22;10838;52.350;9.790;2022-07-10T02:25:32;15.60;90.70
9373;DHT22;10838;52.350;9.790;2022-07-10T02:27:59;15.60;90.80
9373;DHT22;10838;52.350;9.790;2022-07-10T02:30:27;15.60;90.80
9373;DHT22;10838;52.350;9.790;2022-07-10T02:32:53;15.60;90.80
9373;DHT22;10838;52.350;9.790;2022-07-10T02:35:20;15.60;90.80
9373;DHT22;10838;52.350;9.790;2022-07-10T02:37:46;15.60;90.80
9373;DHT22;10838;52.350;9.790;2022-07-10T02:40:13;15.60;90.80
9373;DHT22;10838;52.350;9.790;2022-07-10T02:42:40;15.60;90.80
9373;DHT22;10838;52.350;9.790;2022-07-10T02:45:07;15.50;90.80
9373;DHT22;10838;52.350;9.790;2022-07-10T02:50:57;15.50;90.80
9373;DHT22;10838;52.350;9.790;2022-07-10T02:53:24;15.50;90.80
9373;DHT22;10838;52.350;9.790;2022-07-10T02:55:50;15.50;90.80
9373;DHT22;10838;52.350;9.790;2022-07-10T02:58:17;15.50;90.90
9373;DHT22;10838;52.350;9.790;2022-07-10T03:00:45;15.40;90.90
9373;DHT22;10838;52.350;9.790;2022-07-10T03:03:12;15.40;90.90
9373;DHT22;10838;52.350;9.790;2022-07-10T03:05:39;15.40;90.90
9373;DHT22;10838;52.350;9.790;2022-07-10T03:08:07;15.40;90.90
9373;DHT22;10838;52.350;9.790;2022-07-10T03:10:33;15.40;90.90
9373;DHT22;10838;52.350;9.790;2022-07-10T03:13:00;15.40;90.90
9373;DHT22;10838;52.350;9.790;2022-07-10T03:15:27;15.40;90.90
9373;DHT22;10838;52.350;9.790;2022-07-10T03:17:53;15.40;91.00
9373;DHT22;10838;52.350;9.790;2022-07-10T03:20:20;15.40;91.00
9373;DHT22;10838;52.350;9.790;2022-07-10T03:22:46;15.40;91.00
9373;DHT22;10838;52.350;9.790;2022-07-10T03:25:14;15.40;91.00
9373;DHT22;10838;52.350;9.790;2022-07-10T03:27:41;15.40;91.10
9373;DHT22;10838;52.350;9.790;2022-07-10T03:30:08;15.40;91.10
9373;DHT22;10838;52.350;9.790;2022-07-10T03:32:35;15.40;91.10
9373;DHT22;10838;52.350;9.790;2022-07-10T03:35:02;15.40;91.10
9373;DHT22;10838;52.350;9.790;2022-07-10T03:37:29;15.30;91.10
9373;DHT22;10838;52.350;9.790;2022-07-10T03:39:55;15.40;91.20
9373;DHT22;10838;52.350;9.790;2022-07-10T03:42:23;15.30;91.20
9373;DHT22;10838;52.350;9.790;2022-07-10T03:44:50;15.30;91.20
9373;DHT22;10838;52.350;9.790;2022-07-10T03:47:16;15.40;91.20
9373;DHT22;10838;52.350;9.790;2022-07-10T03:49:43;15.40;91.20
9373;DHT22;10838;52.350;9.790;2022-07-10T03:52:09;15.30;91.20
9373;DHT22;10838;52.350;9.790;2022-07-10T03:54:36;15.30;91.20
9373;DHT22;10838;52.350;9.790;2022-07-10T03:57:03;15.30;91.20
9373;DHT22;10838;52.350;9.790;2022-07-10T03:59:49;15.40;91.30
9373;DHT22;10838;52.350;9.790;2022-07-10T04:02:15;15.30;91.20
9373;DHT22;10838;52.350;9.790;2022-07-10T04:04:42;15.30;91.20
9373;DHT22;10838;52.350;9.790;2022-07-10T04:07:09;15.40;91.30
9373;DHT22;10838;52.350;9.790;2022-07-10T04:09:37;15.40;91.30
9373;DHT22;10838;52.350;9.790;2022-07-10T04:12:04;15.40;91.30
9373;DHT22;10838;52.350;9.790;2022-07-10T04:14:31;15.40;91.30
9373;DHT22;10838;52.350;9.790;2022-07-10T04:16:59;15.40;91.30
9373;DHT22;10838;52.350;9.790;2022-07-10T04:19:25;15.40;91.30
9373;DHT22;10838;52.350;9.790;2022-07-10T04:21:52;15.40;91.30
9373;DHT22;10838;52.350;9.790;2022-07-10T04:24:19;15.40;91.30
9373;DHT22;10838;52.350;9.790;2022-07-10T04:26:45;15.40;91.40
9373;DHT22;10838;52.350;9.790;2022-07-10T04:29:12;15.40;91.40
9373;DHT22;10838;52.350;9.790;2022-07-10T04:31:38;15.40;91.40
9373;DHT22;10838;52.350;9.790;2022-07-10T04:34:06;15.40;91.40
9373;DHT22;10838;52.350;9.790;2022-07-10T04:36:33;15.40;91.40
9373;DHT22;10838;52.350;9.790;2022-07-10T04:38:59;15.40;91.40
9373;DHT22;10838;52.350;9.790;2022-07-10T04:41:26;15.40;91.40
9373;DHT22;10838;52.350;9.790;2022-07-10T04:43:53;15.40;91.40
9373;DHT22;10838;52.350;9.790;2022-07-10T04:46:19;15.40;91.40
9373;DHT22;10838;52.350;9.790;2022-07-10T04:48:46;15.40;91.40
9373;DHT22;10838;52.350;9.790;2022-07-10T04:51:14;15.40;91.40
9373;DHT22;10838;52.350;9.790;2022-07-10T04:53:40;15.50;91.40
9373;DHT22;10838;52.350;9.790;2022-07-10T04:56:07;15.40;91.40
9373;DHT22;10838;52.350;9.790;2022-07-10T04:58:33;15.40;91.40
9373;DHT22;10838;52.350;9.790;2022-07-10T05:01:00;15.40;91.40
9373;DHT22;10838;52.350;9.790;2022-07-10T05:03:28;15.50;91.40
9373;DHT22;10838;52.350;9.790;2022-07-10T05:05:54;15.50;91.40
9373;DHT22;10838;52.350;9.790;2022-07-10T05:08:23;15.50;91.40
9373;DHT22;10838;52.350;9.790;2022-07-10T05:10:50;15.50;91.40
9373;DHT22;10838;52.350;9.790;2022-07-10T05:13:16;15.50;91.40
9373;DHT22;10838;52.350;9.790;2022-07-10T05:15:45;15.50;91.40
9373;DHT22;10838;52.350;9.790;2022-07-10T05:18:11;15.50;91.40
9373;DHT22;10838;52.350;9.790;2022-07-10T05:20:38;15.50;91.40
9373;DHT22;10838;52.350;9.790;2022-07-10T05:23:08;15.50;91.40
9373;DHT22;10838;52.350;9.790;2022-07-10T05:25:35;15.50;91.40
9373;DHT22;10838;52.350;9.790;2022-07-10T05:28:03;15.50;91.40
9373;DHT22;10838;52.350;9.790;2022-07-10T05:30:29;15.50;91.40
9373;DHT22;10838;52.350;9.790;2022-07-10T05:32:56;15.50;91.40
9373;DHT22;10838;52.350;9.790;2022-07-10T05:35:23;15.50;91.40
9373;DHT22;10838;52.350;9.790;2022-07-10T05:37:49;15.50;91.40
9373;DHT22;10838;52.350;9.790;2022-07-10T05:40:16;15.50;91.40
9373;DHT22;10838;52.350;9.790;2022-07-10T05:42:44;15.50;91.40
9373;DHT22;10838;52.350;9.790;2022-07-10T05:45:11;15.50;91.40
9373;DHT22;10838;52.350;9.790;2022-07-10T05:47:38;15.60;91.40
9373;DHT22;10838;52.350;9.790;2022-07-10T05:50:05;15.60;91.40
9373;DHT22;10838;52.350;9.790;2022-07-10T05:52:32;15.60;91.40
9373;DHT22;10838;52.350;9.790;2022-07-10T05:54:58;15.70;91.40
9373;DHT22;10838;52.350;9.790;2022-07-10T05:57:25;15.60;91.40
9373;DHT22;10838;52.350;9.790;2022-07-10T05:59:52;15.70;91.50
9373;DHT22;10838;52.350;9.790;2022-07-10T06:02:19;15.70;91.40
9373;DHT22;10838;52.350;9.790;2022-07-10T06:04:46;15.70;91.40
9373;DHT22;10838;52.350;9.790;2022-07-10T06:07:13;15.70;91.30
9373;DHT22;10838;52.350;9.790;2022-07-10T06:09:39;15.80;91.30
9373;DHT22;10838;52.350;9.790;2022-07-10T06:12:06;15.80;91.30
9373;DHT22;10838;52.350;9.790;2022-07-10T06:14:33;15.90;91.30
9373;DHT22;10838;52.350;9.790;2022-07-10T06:17:01;15.90;91.30
9373;DHT22;10838;52.350;9.790;2022-07-10T06:19:27;16.00;91.30
9373;DHT22;10838;52.350;9.790;2022-07-10T06:21:54;16.10;91.30
9373;DHT22;10838;52.350;9.790;2022-07-10T06:24:35;16.20;91.30
9373;DHT22;10838;52.350;9.790;2022-07-10T06:27:01;16.30;91.30
9373;DHT22;10838;52.350;9.790;2022-07-10T06:29:28;16.30;91.20
9373;DHT22;10838;52.350;9.790;2022-07-10T06:31:54;16.50;91.20
9373;DHT22;10838;52.350;9.790;2022-07-10T06:34:23;16.60;91.20
9373;DHT22;10838;52.350;9.790;2022-07-10T06:36:49;16.70;91.10
9373;DHT22;10838;52.350;9.790;2022-07-10T06:39:16;16.80;91.10
9373;DHT22;10838;52.350;9.790;2022-07-10T06:41:42;16.80;91.00
9373;DHT22;10838;52.350;9.790;2022-07-10T06:44:09;16.80;91.00
9373;DHT22;10838;52.350;9.790;2022-07-10T06:46:35;16.80;91.00
9373;DHT22;10838;52.350;9.790;2022-07-10T06:49:02;16.80;91.00
9373;DHT22;10838;52.350;9.790;2022-07-10T06:51:29;16.90;91.00
9373;DHT22;10838;52.350;9.790;2022-07-10T06:53:57;16.90;91.10
9373;DHT22;10838;52.350;9.790;2022-07-10T06:56:24;17.10;91.10
9373;DHT22;10838;52.350;9.790;2022-07-10T06:58:50;17.20;91.00
9373;DHT22;10838;52.350;9.790;2022-07-10T07:01:17;17.40;91.00
9373;DHT22;10838;52.350;9.790;2022-07-10T07:03:43;17.60;90.90
9373;DHT22;10838;52.350;9.790;2022-07-10T07:06:10;17.70;90.90
9373;DHT22;10838;52.350;9.790;2022-07-10T07:08:38;17.80;90.90
9373;DHT22;10838;52.350;9.790;2022-07-10T07:11:04;18.00;90.90
9373;DHT22;10838;52.350;9.790;2022-07-10T07:13:31;18.10;90.80
9373;DHT22;10838;52.350;9.790;2022-07-10T07:15:57;18.10;90.70
9373;DHT22;10838;52.350;9.790;2022-07-10T07:18:25;18.20;90.70
9373;DHT22;10838;52.350;9.790;2022-07-10T07:20:57;18.20;90.70
9373;DHT22;10838;52.350;9.790;2022-07-10T07:23:43;18.20;90.70
9373;DHT22;10838;52.350;9.790;2022-07-10T07:26:09;18.20;90.70
9373;DHT22;10838;52.350;9.790;2022-07-10T07:28:36;18.30;90.60
9373;DHT22;10838;52.350;9.790;2022-07-10T07:31:03;18.40;90.50
9373;DHT22;10838;52.350;9.790;2022-07-10T07:33:30;18.40;90.50
9373;DHT22;10838;52.350;9.790;2022-07-10T07:35:57;18.50;90.40
9373;DHT22;10838;52.350;9.790;2022-07-10T07:38:23;18.60;90.40
9373;DHT22;10838;52.350;9.790;2022-07-10T07:40:51;18.80;90.30
9373;DHT22;10838;52.350;9.790;2022-07-10T07:43:18;19.00;90.20
9373;DHT22;10838;52.350;9.790;2022-07-10T07:45:44;19.10;90.20
9373;DHT22;10838;52.350;9.790;2022-07-10T07:48:11;19.30;90.20
9373;DHT22;10838;52.350;9.790;2022-07-10T07:50:37;19.50;90.10
9373;DHT22;10838;52.350;9.790;2022-07-10T07:53:05;19.70;90.10
9373;DHT22;10838;52.350;9.790;2022-07-10T07:55:33;19.80;90.00
9373;DHT22;10838;52.350;9.790;2022-07-10T07:58:02;19.90;89.90
9373;DHT22;10838;52.350;9.790;2022-07-10T08:00:29;19.80;89.70
9373;DHT22;10838;52.350;9.790;2022-07-10T08:02:57;19.80;89.50
9373;DHT22;10838;52.350;9.790;2022-07-10T08:05:24;19.80;89.20
9373;DHT22;10838;52.350;9.790;2022-07-10T08:07:52;19.80;89.10
9373;DHT22;10838;52.350;9.790;2022-07-10T08:10:21;19.80;89.00
9373;DHT22;10838;52.350;9.790;2022-07-10T08:12:48;19.80;88.90
9373;DHT22;10838;52.350;9.790;2022-07-10T08:15:17;19.80;88.90
9373;DHT22;10838;52.350;9.790;2022-07-10T08:17:47;19.80;89.00
9373;DHT22;10838;52.350;9.790;2022-07-10T08:20:14;19.90;89.00
9373;DHT22;10838;52.350;9.790;2022-07-10T08:22:41;19.90;88.90
9373;DHT22;10838;52.350;9.790;2022-07-10T08:25:09;19.80;88.70
9373;DHT22;10838;52.350;9.790;2022-07-10T08:27:36;19.80;88.80
9373;DHT22;10838;52.350;9.790;2022-07-10T08:30:03;19.80;88.90
9373;DHT22;10838;52.350;9.790;2022-07-10T08:32:31;19.80;88.80
9373;DHT22;10838;52.350;9.790;2022-07-10T08:34:58;19.80;88.70
9373;DHT22;10838;52.350;9.790;2022-07-10T08:37:25;19.80;88.60
9373;DHT22;10838;52.350;9.790;2022-07-10T08:39:52;19.80;88.50
9373;DHT22;10838;52.350;9.790;2022-07-10T08:42:19;19.80;88.40
9373;DHT22;10838;52.350;9.790;2022-07-10T08:44:46;19.80;88.30
9373;DHT22;10838;52.350;9.790;2022-07-10T08:47:13;19.80;88.30
9373;DHT22;10838;52.350;9.790;2022-07-10T08:49:47;19.80;88.20
9373;DHT22;10838;52.350;9.790;2022-07-10T08:52:24;20.00;88.30
9373;DHT22;10838;52.350;9.790;2022-07-10T08:54:51;20.10;88.20
9373;DHT22;10838;52.350;9.790;2022-07-10T08:57:18;20.20;88.10
9373;DHT22;10838;52.350;9.790;2022-07-10T08:59:45;20.30;88.00
9373;DHT22;10838;52.350;9.790;2022-07-10T09:02:12;20.50;88.00
9373;DHT22;10838;52.350;9.790;2022-07-10T09:04:39;20.50;88.00
9373;DHT22;10838;52.350;9.790;2022-07-10T09:07:06;20.50;87.70
9373;DHT22;10838;52.350;9.790;2022-07-10T09:09:51;20.50;87.70
9373;DHT22;10838;52.350;9.790;2022-07-10T09:12:18;20.50;87.60
9373;DHT22;10838;52.350;9.790;2022-07-10T09:14:45;20.40;87.60
9373;DHT22;10838;52.350;9.790;2022-07-10T09:17:11;20.50;87.70
9373;DHT22;10838;52.350;9.790;2022-07-10T09:19:39;20.40;87.70
9373;DHT22;10838;52.350;9.790;2022-07-10T09:22:08;20.30;87.80
9373;DHT22;10838;52.350;9.790;2022-07-10T09:24:36;20.20;88.00
9373;DHT22;10838;52.350;9.790;2022-07-10T09:27:04;20.10;88.20
9373;DHT22;10838;52.350;9.790;2022-07-10T09:29:31;19.90;88.40
9373;DHT22;10838;52.350;9.790;2022-07-10T09:31:59;19.90;88.50
9373;DHT22;10838;52.350;9.790;2022-07-10T09:34:36;19.80;88.60
9373;DHT22;10838;52.350;9.790;2022-07-10T09:37:25;19.80;88.60
9373;DHT22;10838;52.350;9.790;2022-07-10T09:39:59;19.80;88.70
9373;DHT22;10838;52.350;9.790;2022-07-10T09:42:29;19.80;88.80
9373;DHT22;10838;52.350;9.790;2022-07-10T09:45:17;19.90;88.80
9373;DHT22;10838;52.350;9.790;2022-07-10T09:47:45;20.00;88.70
9373;DHT22;10838;52.350;9.790;2022-07-10T09:50:26;20.00;88.60
9373;DHT22;10838;52.350;9.790;2022-07-10T09:52:55;20.00;88.70
9373;DHT22;10838;52.350;9.790;2022-07-10T09:55:23;19.90;88.80
9373;DHT22;10838;52.350;9.790;2022-07-10T09:57:54;19.90;88.90
9373;DHT22;10838;52.350;9.790;2022-07-10T10:00:26;19.80;88.90
9373;DHT22;10838;52.350;9.790;2022-07-10T10:02:58;19.80;88.80
9373;DHT22;10838;52.350;9.790;2022-07-10T10:05:43;19.80;88.90
9373;DHT22;10838;52.350;9.790;2022-07-10T10:08:16;19.90;88.90
9373;DHT22;10838;52.350;9.790;2022-07-10T10:10:47;20.00;89.10
9373;DHT22;10838;52.350;9.790;2022-07-10T10:13:16;20.20;88.90
9373;DHT22;10838;52.350;9.790;2022-07-10T10:15:44;20.40;88.60
9373;DHT22;10838;52.350;9.790;2022-07-10T10:18:13;20.50;88.30
9373;DHT22;10838;52.350;9.790;2022-07-10T10:20:42;20.60;88.00
9373;DHT22;10838;52.350;9.790;2022-07-10T10:23:10;20.70;87.80
9373;DHT22;10838;52.350;9.790;2022-07-10T10:25:38;20.70;87.60
9373;DHT22;10838;52.350;9.790;2022-07-10T10:28:08;20.80;87.70
9373;DHT22;10838;52.350;9.790;2022-07-10T10:30:37;20.80;87.80
9373;DHT22;10838;52.350;9.790;2022-07-10T10:33:41;20.80;87.70
9373;DHT22;10838;52.350;9.790;2022-07-10T10:36:09;20.80;87.80
9373;DHT22;10838;52.350;9.790;2022-07-10T10:39:00;20.80;87.60
9373;DHT22;10838;52.350;9.790;2022-07-10T10:41:30;20.80;87.50
9373;DHT22;10838;52.350;9.790;2022-07-10T10:44:23;20.90;88.00
9373;DHT22;10838;52.350;9.790;2022-07-10T10:46:58;21.10;87.80
9373;DHT22;10838;52.350;9.790;2022-07-10T10:52:28;21.30;87.50
9373;DHT22;10838;52.350;9.790;2022-07-10T10:55:03;21.30;87.40
9373;DHT22;10838;52.350;9.790;2022-07-10T10:57:44;21.40;87.60
9373;DHT22;10838;52.350;9.790;2022-07-10T11:00:29;21.50;87.40
9373;DHT22;10838;52.350;9.790;2022-07-10T11:03:12;21.60;87.10
9373;DHT22;10838;52.350;9.790;2022-07-10T11:05:41;21.70;87.30
9373;DHT22;10838;52.350;9.790;2022-07-10T11:08:08;21.90;87.20
9373;DHT22;10838;52.350;9.790;2022-07-10T11:10:37;22.00;86.90
9373;DHT22;10838;52.350;9.790;2022-07-10T11:13:05;22.10;86.80
9373;DHT22;10838;52.350;9.790;2022-07-10T11:15:34;22.10;86.70
9373;DHT22;10838;52.350;9.790;2022-07-10T11:18:06;22.20;86.60
9373;DHT22;10838;52.350;9.790;2022-07-10T11:20:35;22.20;86.50
9373;DHT22;10838;52.350;9.790;2022-07-10T11:23:12;22.30;86.60
9373;DHT22;10838;52.350;9.790;2022-07-10T11:25:49;22.30;86.60
9373;DHT22;10838;52.350;9.790;2022-07-10T11:28:34;22.30;86.70
9373;DHT22;10838;52.350;9.790;2022-07-10T11:31:04;22.30;86.60
9373;DHT22;10838;52.350;9.790;2022-07-10T11:33:39;22.30;86.40
9373;DHT22;10838;52.350;9.790;2022-07-10T11:36:10;22.40;86.50
9373;DHT22;10838;52.350;9.790;2022-07-10T11:38:39;22.40;86.40
9373;DHT22;10838;52.350;9.790;2022-07-10T11:41:13;22.40;86.10
9373;DHT22;10838;52.350;9.790;2022-07-10T11:43:47;22.40;86.10
9373;DHT22;10838;52.350;9.790;2022-07-10T11:46:14;22.50;85.90
9373;DHT22;10838;52.350;9.790;2022-07-10T11:48:41;22.50;85.80
9373;DHT22;10838;52.350;9.790;2022-07-10T11:51:20;22.60;85.70
9373;DHT22;10838;52.350;9.790;2022-07-10T11:53:58;22.60;85.70
9373;DHT22;10838;52.350;9.790;2022-07-10T11:56:26;22.50;85.80
9373;DHT22;10838;52.350;9.790;2022-07-10T11:58:57;22.50;85.70
9373;DHT22;10838;52.350;9.790;2022-07-10T12:01:24;22.40;85.70
9373;DHT22;10838;52.350;9.790;2022-07-10T12:03:56;22.40;85.80
9373;DHT22;10838;52.350;9.790;2022-07-10T12:06:23;22.40;86.00
9373;DHT22;10838;52.350;9.790;2022-07-10T12:08:50;22.40;86.00
9373;DHT22;10838;52.350;9.790;2022-07-10T12:11:17;22.40;86.00
9373;DHT22;10838;52.350;9.790;2022-07-10T12:13:44;22.40;86.10
9373;DHT22;10838;52.350;9.790;2022-07-10T12:16:14;22.40;86.30
9373;DHT22;10838;52.350;9.790;2022-07-10T12:18:42;22.40;86.50
9373;DHT22;10838;52.350;9.790;2022-07-10T12:21:09;22.40;86.70
9373;DHT22;10838;52.350;9.790;2022-07-10T12:23:37;22.40;86.80
9373;DHT22;10838;52.350;9.790;2022-07-10T12:26:08;22.50;86.80
9373;DHT22;10838;52.350;9.790;2022-07-10T12:28:48;22.50;86.90
9373;DHT22;10838;52.350;9.790;2022-07-10T12:31:21;22.50;86.90
9373;DHT22;10838;52.350;9.790;2022-07-10T12:33:52;22.50;86.90
9373;DHT22;10838;52.350;9.790;2022-07-10T12:36:20;22.40;86.90
9373;DHT22;10838;52.350;9.790;2022-07-10T12:38:54;22.30;86.90
9373;DHT22;10838;52.350;9.790;2022-07-10T12:41:21;22.20;87.00
9373;DHT22;10838;52.350;9.790;2022-07-10T12:43:50;22.20;87.00
9373;DHT22;10838;52.350;9.790;2022-07-10T12:46:18;22.10;86.80
9373;DHT22;10838;52.350;9.790;2022-07-10T12:49:01;22.10;86.90
9373;DHT22;10838;52.350;9.790;2022-07-10T12:51:30;22.00;87.00
9373;DHT22;10838;52.350;9.790;2022-07-10T12:53:56;22.00;87.00
9373;DHT22;10838;52.350;9.790;2022-07-10T12:56:32;21.90;87.00
9373;DHT22;10838;52.350;9.790;2022-07-10T12:58:59;21.80;86.90
9373;DHT22;10838;52.350;9.790;2022-07-10T13:01:27;21.80;87.10
9373;DHT22;10838;52.350;9.790;2022-07-10T13:04:02;21.70;87.20
9373;DHT22;10838;52.350;9.790;2022-07-10T13:06:29;21.70;87.20
9373;DHT22;10838;52.350;9.790;2022-07-10T13:08:56;21.60;87.40
9373;DHT22;10838;52.350;9.790;2022-07-10T13:11:23;21.60;87.40
9373;DHT22;10838;52.350;9.790;2022-07-10T13:13:49;21.50;87.40
9373;DHT22;10838;52.350;9.790;2022-07-10T13:16:16;21.50;87.40
9373;DHT22;10838;52.350;9.790;2022-07-10T13:18:43;21.40;87.50
9373;DHT22;10838;52.350;9.790;2022-07-10T13:21:12;21.40;87.60
9373;DHT22;10838;52.350;9.790;2022-07-10T13:23:39;21.30;87.60
9373;DHT22;10838;52.350;9.790;2022-07-10T13:26:07;21.30;87.70
9373;DHT22;10838;52.350;9.790;2022-07-10T13:28:34;21.30;87.80
9373;DHT22;10838;52.350;9.790;2022-07-10T13:31:00;21.20;87.90
9373;DHT22;10838;52.350;9.790;2022-07-10T13:33:27;21.20;88.10
9373;DHT22;10838;52.350;9.790;2022-07-10T13:35:54;21.10;88.20
9373;DHT22;10838;52.350;9.790;2022-07-10T13:38:22;21.10;88.20
9373;DHT22;10838;52.350;9.790;2022-07-10T13:40:50;21.10;88.20
9373;DHT22;10838;52.350;9.790;2022-07-10T13:43:17;21.10;88.20
9373;DHT22;10838;52.350;9.790;2022-07-10T13:45:46;21.10;88.40
9373;DHT22;10838;52.350;9.790;2022-07-10T13:48:14;21.10;88.50
9373;DHT22;10838;52.350;9.790;2022-07-10T13:50:42;21.10;88.60
9373;DHT22;10838;52.350;9.790;2022-07-10T13:53:09;21.10;88.80
9373;DHT22;10838;52.350;9.790;2022-07-10T13:55:38;21.10;88.90
9373;DHT22;10838;52.350;9.790;2022-07-10T13:58:04;21.10;88.90
9373;DHT22;10838;52.350;9.790;2022-07-10T14:00:31;21.10;89.00
9373;DHT22;10838;52.350;9.790;2022-07-10T14:02:58;21.10;89.00
9373;DHT22;10838;52.350;9.790;2022-07-10T14:05:26;21.10;89.10
9373;DHT22;10838;52.350;9.790;2022-07-10T14:07:52;21.10;89.00
9373;DHT22;10838;52.350;9.790;2022-07-10T14:10:19;21.10;89.00
9373;DHT22;10838;52.350;9.790;2022-07-10T14:12:47;21.10;88.90
9373;DHT22;10838;52.350;9.790;2022-07-10T14:15:14;21.10;88.90
9373;DHT22;10838;52.350;9.790;2022-07-10T14:17:40;21.10;88.80
9373;DHT22;10838;52.350;9.790;2022-07-10T14:20:09;21.10;88.80
9373;DHT22;10838;52.350;9.790;2022-07-10T14:22:36;21.00;88.70
9373;DHT22;10838;52.350;9.790;2022-07-10T14:25:03;21.00;88.70
9373;DHT22;10838;52.350;9.790;2022-07-10T14:27:30;21.00;88.80
9373;DHT22;10838;52.350;9.790;2022-07-10T14:29:58;20.90;88.80
9373;DHT22;10838;52.350;9.790;2022-07-10T14:32:25;20.90;88.90
9373;DHT22;10838;52.350;9.790;2022-07-10T14:34:52;20.80;89.00
9373;DHT22;10838;52.350;9.790;2022-07-10T14:37:18;20.80;89.30
9373;DHT22;10838;52.350;9.790;2022-07-10T14:39:45;20.70;89.40
9373;DHT22;10838;52.350;9.790;2022-07-10T14:42:12;20.70;89.50
9373;DHT22;10838;52.350;9.790;2022-07-10T14:44:38;20.70;89.60
9373;DHT22;10838;52.350;9.790;2022-07-10T14:47:06;20.70;89.50
9373;DHT22;10838;52.350;9.790;2022-07-10T14:49:33;20.70;89.50
9373;DHT22;10838;52.350;9.790;2022-07-10T14:51:59;20.70;89.40
9373;DHT22;10838;52.350;9.790;2022-07-10T14:54:26;20.70;89.20
9373;DHT22;10838;52.350;9.790;2022-07-10T14:56:53;20.70;89.10
9373;DHT22;10838;52.350;9.790;2022-07-10T14:59:19;20.70;89.00
9373;DHT22;10838;52.350;9.790;2022-07-10T15:01:46;20.70;89.00
9373;DHT22;10838;52.350;9.790;2022-07-10T15:04:14;20.70;88.90
9373;DHT22;10838;52.350;9.790;2022-07-10T15:06:40;20.70;88.80
9373;DHT22;10838;52.350;9.790;2022-07-10T15:09:07;20.70;88.80
9373;DHT22;10838;52.350;9.790;2022-07-10T15:11:33;20.80;88.90
9373;DHT22;10838;52.350;9.790;2022-07-10T15:14:01;20.80;88.90
9373;DHT22;10838;52.350;9.790;2022-07-10T15:16:30;20.90;88.80
9373;DHT22;10838;52.350;9.790;2022-07-10T15:18:56;20.90;88.80
9373;DHT22;10838;52.350;9.790;2022-07-10T15:21:24;21.00;88.80
9373;DHT22;10838;52.350;9.790;2022-07-10T15:23:51;21.00;88.80
9373;DHT22;10838;52.350;9.790;2022-07-10T15:26:17;21.00;88.70
9373;DHT22;10838;52.350;9.790;2022-07-10T15:28:44;21.00;88.80
9373;DHT22;10838;52.350;9.790;2022-07-10T15:31:10;21.10;88.80
9373;DHT22;10838;52.350;9.790;2022-07-10T15:33:37;21.10;88.80
9373;DHT22;10838;52.350;9.790;2022-07-10T15:36:09;21.00;88.70
9373;DHT22;10838;52.350;9.790;2022-07-10T15:38:37;21.00;88.80
9373;DHT22;10838;52.350;9.790;2022-07-10T15:41:04;21.00;88.80
9373;DHT22;10838;52.350;9.790;2022-07-10T15:43:30;20.90;88.80
9373;DHT22;10838;52.350;9.790;2022-07-10T15:45:57;20.90;89.00
9373;DHT22;10838;52.350;9.790;2022-07-10T15:48:24;20.80;89.20
9373;DHT22;10838;52.350;9.790;2022-07-10T15:50:51;20.80;89.40
9373;DHT22;10838;52.350;9.790;2022-07-10T15:53:19;20.70;89.40
9373;DHT22;10838;52.350;9.790;2022-07-10T15:55:47;20.70;89.50
9373;DHT22;10838;52.350;9.790;2022-07-10T15:58:14;20.70;89.60